YXGA weather

Gatton Showgrounds Helicopter Landing Site
Gatton, Queensland, Australia

Public forecast

Using degrees Celsius for public forecast. Weather courtesy of forecast.io.

METAR (pilot weather report)

Closest report is RAAF Base Amberley, 23.4 nm (43.3 km) ESE. Retrieved 2019/05/27 13:00 UTC (7 minutes ago):

YAMB 271300Z AUTO 27005KT 9999 // NCD 17/M00 Q1015

TAF (pilot weather forecast)

Forecast is more than 6 hours old.

Closest forecast is RAAF Base Amberley, 23.4 nm (43.3 km) ESE. Retrieved 2019/05/27 06:00 UTC (7 hours ago):

TAF COR YAMB 270621Z 2706/2724 27015G25KT CAVOK FM270900 26008KT CAVOK